West Eminence, Missouri
Current Conditions -  °F | °C
As of 6:53 AM on Friday 28 Nov 2014 (Local Time) from KUNO Reporting Station
Clear Clear  
Wind Chill: 24°   Ceiling: Unl
Heat Index: 29°   Visibility: 9mi
Dew Point: 24°   Wind: 5mph
Humidity: 82%   Direction: 170°S
Pressure: 30.26"   Gusts: NA
Location:  37.1833°N, 91.4819°W
Report Text: KUNO 281253Z AUTO 17004KT 9SM CLR M02/M04 A3026 RMK AO2 SLP259 T10171044
Loading
Personal Weather Stations






























Interactive Weather Map New forecast layout! Learn more

10-Day Weather Forecast

Advertisements
Track Severe Weather on mobile